PWSweather.com
Personal Weather Stations
Station Observations
KMIEASTT1
Tawas Bay, East Tawas, MI 48730

Tawas BayEast Tawas, MI 48730

Lat: 44.28, Lon: -83.48

Elevation: 600

Station Type: Davis VantagePro

http://www.tawasbayweather.com

Latest ConditionsUpdated 6:15:07 AM EDT Saturday, May 25, 2019
Currently Today's Max Today's Min Today's Average
Temperature 55.0°F12.8°C 55.0°F12.8°C 52.3°F11.3°C 53.2°F11.8°C
Dew Point 54.2°F12.3°C 54.2°F12.3°C 50.6°F10.3°C 51.9°F11.1°C
Winds 7.0 mph SW11.3 kmh SW 11.0 mph -17.7 kmh - - 8.1 mph 13.0 kmh
Wind Gusts 13.0 mph20.9 kmh 18.0 mph29.0 kmh - -
Humidity 97% 97% 94% 95%
Pressure 29.90 in1012.5 mb 30.06 in1017.9 mb 29.84 in1010.5 mb -
Hour Temp Dew Point Humidity Winds Wind Gusts Pressure Precip Precip Rate Daily Precip Total
06:15 AM 55.0°F12.8°C 54.2°F12.3°C 97% 7.0 mph SW11.3 kmh SW 13.0 mph20.9 kmh 29.90 in1012.5 mb 0.08 in2.0 mm 0.08 in2.0 mm 0.32 in8.1 mm
06:00 AM 54.6°F12.6°C 53.8°F12.1°C 97% 11.0 mph SE17.7 kmh SE 18.0 mph29.0 kmh 29.84 in1010.5 mb 0.06 in1.5 mm 0.04 in1.0 mm 0.30 in7.6 mm
05:45 AM 54.4°F12.4°C 53.6°F12.0°C 97% 5.0 mph S8.0 kmh S 7.0 mph11.3 kmh 29.90 in1012.5 mb 0.03 in0.8 mm 0.04 in1.0 mm 0.27 in6.9 mm
05:31 AM 54.5°F12.5°C 53.7°F12.1°C 97% 9.0 mph S14.5 kmh S 9.0 mph14.5 kmh 29.90 in1012.5 mb 0.02 in0.5 mm 0.00 in0.0 mm 0.26 in6.6 mm
05:15 AM 54.0°F12.2°C 53.2°F11.8°C 97% 3.0 mph S4.8 kmh S 4.0 mph6.4 kmh 29.91 in1012.9 mb 0.02 in0.5 mm 0.00 in0.0 mm 0.26 in6.6 mm
05:00 AM 53.9°F12.2°C 53.1°F11.7°C 97% 7.0 mph SSE11.3 kmh SSE 9.0 mph14.5 kmh 29.91 in1012.9 mb 0.02 in0.5 mm 0.00 in0.0 mm 0.26 in6.6 mm
04:45 AM 53.3°F11.8°C 52.5°F11.4°C 97% 8.0 mph SE12.9 kmh SE 12.0 mph19.3 kmh 29.91 in1012.9 mb 0.05 in1.3 mm 0.04 in1.0 mm 0.26 in6.6 mm
04:30 AM 53.4°F11.9°C 52.3°F11.3°C 96% 9.0 mph SE14.5 kmh SE 11.0 mph17.7 kmh 29.91 in1012.9 mb 0.04 in1.0 mm 0.00 in0.0 mm 0.25 in6.4 mm
04:15 AM 53.5°F11.9°C 52.4°F11.3°C 96% 11.0 mph SE17.7 kmh SE 12.0 mph19.3 kmh 29.94 in1013.9 mb 0.25 in6.4 mm 0.00 in0.0 mm 0.25 in6.4 mm
04:00 AM 53.8°F12.1°C 52.7°F11.5°C 96% 10.0 mph ESE16.1 kmh ESE 11.0 mph17.7 kmh 29.94 in1013.9 mb 0.25 in6.4 mm 0.00 in0.0 mm 0.25 in6.4 mm
03:45 AM 53.6°F12.0°C 52.5°F11.4°C 96% 11.0 mph SE17.7 kmh SE 11.0 mph17.7 kmh 29.95 in1014.2 mb 0.25 in6.4 mm 0.08 in2.0 mm 0.25 in6.4 mm
03:30 AM 53.6°F12.0°C 52.5°F11.4°C 96% Calm Calm 7.0 mph11.3 kmh 29.98 in1015.2 mb 0.23 in5.8 mm 0.13 in3.3 mm 0.23 in5.8 mm
03:16 AM 52.7°F11.5°C 51.3°F10.7°C 95% 11.0 mph SE17.7 kmh SE 14.0 mph22.5 kmh 29.97 in1014.9 mb 0.20 in5.1 mm 0.75 in19.1 mm 0.20 in5.1 mm
03:00 AM 52.6°F11.4°C 50.9°F10.5°C 94% 8.0 mph WSW12.9 kmh WSW 11.0 mph17.7 kmh 30.05 in1017.6 mb 0.00 in0.0 mm 0.00 in0.0 mm 0.00 in0.0 mm
02:45 AM 52.4°F11.3°C 50.7°F10.4°C 94% 5.0 mph ESE8.0 kmh ESE 7.0 mph11.3 kmh 29.99 in1015.6 mb 0.00 in0.0 mm 0.00 in0.0 mm 0.00 in0.0 mm
02:30 AM 52.5°F11.4°C 50.8°F10.4°C 94% 5.0 mph ESE8.0 kmh ESE 9.0 mph14.5 kmh 29.98 in1015.2 mb 0.00 in0.0 mm 0.00 in0.0 mm 0.00 in0.0 mm
02:16 AM 52.6°F11.4°C 50.9°F10.5°C 94% 5.0 mph SE8.0 kmh SE 9.0 mph14.5 kmh 29.99 in1015.6 mb 0.00 in0.0 mm 0.00 in0.0 mm 0.00 in0.0 mm
02:00 AM 52.6°F11.4°C 50.9°F10.5°C 94% 10.0 mph ESE16.1 kmh ESE 11.0 mph17.7 kmh 29.98 in1015.2 mb 0.00 in0.0 mm 0.00 in0.0 mm 0.00 in0.0 mm
01:45 AM 52.6°F11.4°C 50.9°F10.5°C 94% 9.0 mph ESE14.5 kmh ESE 11.0 mph17.7 kmh 30.00 in1015.9 mb 0.00 in0.0 mm 0.00 in0.0 mm 0.00 in0.0 mm
01:30 AM 52.5°F11.4°C 51.1°F10.6°C 95% 10.0 mph ESE16.1 kmh ESE 11.0 mph17.7 kmh 29.99 in1015.6 mb 0.00 in0.0 mm 0.00 in0.0 mm 0.00 in0.0 mm
01:15 AM 52.3°F11.3°C 50.9°F10.5°C 95% 10.0 mph E16.1 kmh E 11.0 mph17.7 kmh 30.00 in1015.9 mb 0.00 in0.0 mm 0.00 in0.0 mm 0.00 in0.0 mm
01:00 AM 52.3°F11.3°C 50.6°F10.3°C 94% 10.0 mph ESE16.1 kmh ESE 11.0 mph17.7 kmh 30.02 in1016.6 mb 0.00 in0.0 mm 0.00 in0.0 mm 0.00 in0.0 mm
12:45 AM 52.5°F11.4°C 51.1°F10.6°C 95% 10.0 mph ESE16.1 kmh ESE 13.0 mph20.9 kmh 30.03 in1016.9 mb 0.00 in0.0 mm 0.00 in0.0 mm 0.00 in0.0 mm
12:30 AM 52.5°F11.4°C 50.8°F10.4°C 94% 9.0 mph E14.5 kmh E 10.0 mph16.1 kmh 30.04 in1017.3 mb 0.00 in0.0 mm 0.00 in0.0 mm 0.00 in0.0 mm
12:15 AM 52.6°F11.4°C 50.9°F10.5°C 94% 8.0 mph ESE12.9 kmh ESE 11.0 mph17.7 kmh 30.05 in1017.6 mb 0.00 in0.0 mm 0.00 in0.0 mm 0.00 in0.0 mm
12:00 AM 52.6°F11.4°C 50.9°F10.5°C 94% 10.0 mph E16.1 kmh E 10.0 mph16.1 kmh 30.06 in1017.9 mb 0.00 in0.0 mm 0.00 in0.0 mm 0.00 in0.0 mm